sensor_id;sensor_type;location;lat;lon;timestamp;pressure;altitude;pressure_sealevel;temperature;humidity
53270;BME280;39159;45.634;9.420;2022-10-16T00:00:40;99328.84;;;15.24;100.00
53270;BME280;39159;45.634;9.420;2022-10-16T00:03:07;99340.34;;;15.26;100.00
53270;BME280;39159;45.634;9.420;2022-10-16T00:05:38;99337.59;;;15.26;100.00
53270;BME280;39159;45.634;9.420;2022-10-16T00:08:04;99338.38;;;15.27;100.00
53270;BME280;39159;45.634;9.420;2022-10-16T00:10:29;99334.84;;;15.26;100.00
53270;BME280;39159;45.634;9.420;2022-10-16T00:12:54;99336.00;;;15.25;100.00
53270;BME280;39159;45.634;9.420;2022-10-16T00:15:20;99335.16;;;15.25;100.00
53270;BME280;39159;45.634;9.420;2022-10-16T00:17:45;99338.38;;;15.27;100.00
53270;BME280;39159;45.634;9.420;2022-10-16T00:20:11;99330.13;;;15.27;100.00
53270;BME280;39159;45.634;9.420;2022-10-16T00:22:36;99329.34;;;15.26;100.00
53270;BME280;39159;45.634;9.420;2022-10-16T00:25:02;99330.50;;;15.25;100.00
53270;BME280;39159;45.634;9.420;2022-10-16T00:27:27;99335.63;;;15.27;100.00
53270;BME280;39159;45.634;9.420;2022-10-16T00:29:53;99337.09;;;15.24;100.00
53270;BME280;39159;45.634;9.420;2022-10-16T00:32:19;99336.00;;;15.25;100.00
53270;BME280;39159;45.634;9.420;2022-10-16T00:34:45;99329.66;;;15.25;100.00
53270;BME280;39159;45.634;9.420;2022-10-16T00:37:11;99332.09;;;15.26;100.00
53270;BME280;39159;45.634;9.420;2022-10-16T00:39:37;99333.56;;;15.24;100.00
53270;BME280;39159;45.634;9.420;2022-10-16T00:42:03;99339.22;;;15.27;100.00
53270;BME280;39159;45.634;9.420;2022-10-16T00:47:11;99343.25;;;15.30;100.00
53270;BME280;39159;45.634;9.420;2022-10-16T00:49:38;99345.16;;;15.29;100.00
53270;BME280;39159;45.634;9.420;2022-10-16T00:52:03;99332.56;;;15.28;100.00
53270;BME280;39159;45.634;9.420;2022-10-16T00:54:31;99341.28;;;15.30;100.00
53270;BME280;39159;45.634;9.420;2022-10-16T00:57:00;99339.66;;;15.29;100.00
53270;BME280;39159;45.634;9.420;2022-10-16T00:59:27;99340.50;;;15.30;100.00
53270;BME280;39159;45.634;9.420;2022-10-16T01:01:54;99338.88;;;15.29;100.00
53270;BME280;39159;45.634;9.420;2022-10-16T01:04:21;99331.78;;;15.28;100.00
53270;BME280;39159;45.634;9.420;2022-10-16T01:09:25;99331.94;;;15.23;100.00
53270;BME280;39159;45.634;9.420;2022-10-16T01:12:10;99331.94;;;15.23;100.00
53270;BME280;39159;45.634;9.420;2022-10-16T01:20:17;99329.19;;;15.23;100.00
53270;BME280;39159;45.634;9.420;2022-10-16T01:23:03;99324.50;;;15.23;100.00
53270;BME280;39159;45.634;9.420;2022-10-16T01:28:22;99327.25;;;15.23;100.00
53270;BME280;39159;45.634;9.420;2022-10-16T01:30:52;99322.41;;;15.20;100.00
53270;BME280;39159;45.634;9.420;2022-10-16T01:33:25;99330.31;;;15.22;100.00
53270;BME280;39159;45.634;9.420;2022-10-16T01:35:57;99330.00;;;15.23;100.00
53270;BME280;39159;45.634;9.420;2022-10-16T01:38:32;99337.44;;;15.23;100.00
53270;BME280;39159;45.634;9.420;2022-10-16T01:41:10;99333.88;;;15.22;100.00
53270;BME280;39159;45.634;9.420;2022-10-16T01:43:42;99332.59;;;15.20;100.00
53270;BME280;39159;45.634;9.420;2022-10-16T01:46:09;99331.47;;;15.21;100.00
53270;BME280;39159;45.634;9.420;2022-10-16T01:48:36;99332.59;;;15.20;100.00
53270;BME280;39159;45.634;9.420;2022-10-16T01:51:21;99321.59;;;15.20;100.00
53270;BME280;39159;45.634;9.420;2022-10-16T01:53:52;99332.59;;;15.20;100.00
53270;BME280;39159;45.634;9.420;2022-10-16T01:56:19;99321.91;;;15.18;100.00
53270;BME280;39159;45.634;9.420;2022-10-16T01:58:57;99324.19;;;15.16;100.00
53270;BME280;39159;45.634;9.420;2022-10-16T02:01:26;99321.13;;;15.18;100.00
53270;BME280;39159;45.634;9.420;2022-10-16T02:03:54;99312.88;;;15.18;100.00
53270;BME280;39159;45.634;9.420;2022-10-16T02:06:22;99320.00;;;15.19;100.00
53270;BME280;39159;45.634;9.420;2022-10-16T02:08:48;99318.06;;;15.19;100.00
53270;BME280;39159;45.634;9.420;2022-10-16T02:11:13;99318.06;;;15.19;100.00
53270;BME280;39159;45.634;9.420;2022-10-16T02:13:50;99317.72;;;15.21;100.00
53270;BME280;39159;45.634;9.420;2022-10-16T02:16:17;99325.31;;;15.24;100.00
53270;BME280;39159;45.634;9.420;2022-10-16T02:18:43;99328.84;;;15.24;100.00
53270;BME280;39159;45.634;9.420;2022-10-16T02:21:23;99329.66;;;15.25;100.00
53270;BME280;39159;45.634;9.420;2022-10-16T02:26:58;99334.03;;;15.26;100.00
53270;BME280;39159;45.634;9.420;2022-10-16T02:29:27;99331.59;;;15.24;100.00
53270;BME280;39159;45.634;9.420;2022-10-16T02:32:00;99324.81;;;15.22;100.00
53270;BME280;39159;45.634;9.420;2022-10-16T02:34:27;99330.31;;;15.22;100.00
53270;BME280;39159;45.634;9.420;2022-10-16T02:36:54;99318.84;;;15.20;100.00
53270;BME280;39159;45.634;9.420;2022-10-16T02:39:21;99336.16;;;15.20;100.00
53270;BME280;39159;45.634;9.420;2022-10-16T02:41:47;99339.38;;;15.22;100.00
53270;BME280;39159;45.634;9.420;2022-10-16T02:44:13;99341.31;;;15.22;100.00
53270;BME280;39159;45.634;9.420;2022-10-16T02:46:38;99341.66;;;15.20;100.00
53270;BME280;39159;45.634;9.420;2022-10-16T02:49:04;99342.47;;;15.21;100.00
53270;BME280;39159;45.634;9.420;2022-10-16T02:51:29;99342.47;;;15.21;100.00
53270;BME280;39159;45.634;9.420;2022-10-16T02:53:55;99341.50;;;15.17;100.00
53270;BME280;39159;45.634;9.420;2022-10-16T02:56:20;99345.88;;;15.18;100.00
53270;BME280;39159;45.634;9.420;2022-10-16T02:58:46;99347.00;;;15.17;100.00
53270;BME280;39159;45.634;9.420;2022-10-16T03:01:11;99348.94;;;15.16;100.00
53270;BME280;39159;45.634;9.420;2022-10-16T03:03:38;99353.63;;;15.16;100.00
53270;BME280;39159;45.634;9.420;2022-10-16T03:06:03;99352.50;;;15.17;100.00
53270;BME280;39159;45.634;9.420;2022-10-16T03:08:29;99344.91;;;15.13;100.00
53270;BME280;39159;45.634;9.420;2022-10-16T03:10:54;99353.16;;;15.13;100.00
53270;BME280;39159;45.634;9.420;2022-10-16T03:13:20;99352.84;;;15.15;100.00
53270;BME280;39159;45.634;9.420;2022-10-16T03:15:45;99353.97;;;15.14;100.00
53270;BME280;39159;45.634;9.420;2022-10-16T03:18:11;99348.81;;;15.12;100.00
53270;BME280;39159;45.634;9.420;2022-10-16T03:20:37;99351.06;;;15.10;100.00
53270;BME280;39159;45.634;9.420;2022-10-16T03:23:03;99351.88;;;15.11;100.00
53270;BME280;39159;45.634;9.420;2022-10-16T03:25:29;99358.66;;;15.13;100.00
53270;BME280;39159;45.634;9.420;2022-10-16T03:27:54;99351.88;;;15.11;100.00
53270;BME280;39159;45.634;9.420;2022-10-16T03:30:20;99362.06;;;15.10;100.00
53270;BME280;39159;45.634;9.420;2022-10-16T03:32:45;99362.38;;;15.09;100.00
53270;BME280;39159;45.634;9.420;2022-10-16T03:35:11;99355.59;;;15.06;100.00
53270;BME280;39159;45.634;9.420;2022-10-16T03:37:37;99366.59;;;15.06;100.00
53270;BME280;39159;45.634;9.420;2022-10-16T03:40:03;99360.13;;;15.02;100.00
53270;BME280;39159;45.634;9.420;2022-10-16T03:42:29;99367.59;;;15.02;100.00
53270;BME280;39159;45.634;9.420;2022-10-16T03:44:54;99366.31;;;14.99;100.00
53270;BME280;39159;45.634;9.420;2022-10-16T03:47:19;99359.34;;;14.93;100.00
53270;BME280;39159;45.634;9.420;2022-10-16T03:49:47;99377.13;;;14.96;100.00
53270;BME280;39159;45.634;9.420;2022-10-16T03:52:13;99379.75;;;14.92;100.00
53270;BME280;39159;45.634;9.420;2022-10-16T03:54:38;99377.63;;;14.89;100.00
53270;BME280;39159;45.634;9.420;2022-10-16T03:57:04;99374.41;;;14.87;100.00
53270;BME280;39159;45.634;9.420;2022-10-16T03:59:29;99381.34;;;14.84;100.00
53270;BME280;39159;45.634;9.420;2022-10-16T04:01:55;99371.03;;;14.81;100.00
53270;BME280;39159;45.634;9.420;2022-10-16T04:04:20;99376.34;;;14.78;100.00
53270;BME280;39159;45.634;9.420;2022-10-16T04:06:46;99375.38;;;14.74;100.00
53270;BME280;39159;45.634;9.420;2022-10-16T04:09:11;99375.72;;;14.72;100.00
53270;BME280;39159;45.634;9.420;2022-10-16T04:11:37;99381.22;;;14.72;100.00
53270;BME280;39159;45.634;9.420;2022-10-16T04:14:02;99383.97;;;14.72;100.00
53270;BME280;39159;45.634;9.420;2022-10-16T04:16:28;99387.03;;;14.70;100.00
53270;BME280;39159;45.634;9.420;2022-10-16T04:18:53;99392.69;;;14.74;100.00
53270;BME280;39159;45.634;9.420;2022-10-16T04:21:18;99393.50;;;14.75;100.00
53270;BME280;39159;45.634;9.420;2022-10-16T04:23:44;99399.78;;;14.75;100.00
53270;BME280;39159;45.634;9.420;2022-10-16T04:26:09;99392.69;;;14.74;100.00
53270;BME280;39159;45.634;9.420;2022-10-16T04:28:35;99396.72;;;14.77;100.00
53270;BME280;39159;45.634;9.420;2022-10-16T04:31:03;99411.75;;;14.79;100.00
53270;BME280;39159;45.634;9.420;2022-10-16T04:33:29;99412.88;;;14.78;100.00
53270;BME280;39159;45.634;9.420;2022-10-16T04:35:59;99404.63;;;14.78;100.00
53270;BME280;39159;45.634;9.420;2022-10-16T04:38:25;99410.78;;;14.75;100.00
53270;BME280;39159;45.634;9.420;2022-10-16T04:40:51;99417.88;;;14.76;100.00
53270;BME280;39159;45.634;9.420;2022-10-16T04:43:16;99416.75;;;14.77;100.00
53270;BME280;39159;45.634;9.420;2022-10-16T04:45:42;99408.84;;;14.76;100.00
53270;BME280;39159;45.634;9.420;2022-10-16T04:48:07;99406.09;;;14.76;100.00
53270;BME280;39159;45.634;9.420;2022-10-16T04:50:33;99410.78;;;14.75;100.00
53270;BME280;39159;45.634;9.420;2022-10-16T04:52:58;99408.84;;;14.76;100.00
53270;BME280;39159;45.634;9.420;2022-10-16T04:55:24;99407.38;;;14.78;100.00
53270;BME280;39159;45.634;9.420;2022-10-16T04:57:49;99409.00;;;14.79;100.00
53270;BME280;39159;45.634;9.420;2022-10-16T05:00:15;99409.00;;;14.79;100.00
53270;BME280;39159;45.634;9.420;2022-10-16T05:02:40;99414.19;;;14.81;100.00
53270;BME280;39159;45.634;9.420;2022-10-16T05:05:06;99409.63;;;14.85;100.00
53270;BME280;39159;45.634;9.420;2022-10-16T05:07:32;99421.13;;;14.87;100.00
53270;BME280;39159;45.634;9.420;2022-10-16T05:09:57;99413.03;;;14.90;100.00
53270;BME280;39159;45.634;9.420;2022-10-16T05:12:23;99413.53;;;14.92;100.00
53270;BME280;39159;45.634;9.420;2022-10-16T05:14:48;99412.38;;;14.93;100.00
53270;BME280;39159;45.634;9.420;2022-10-16T05:17:13;99413.22;;;14.94;100.00
53270;BME280;39159;45.634;9.420;2022-10-16T05:19:39;99416.75;;;14.95;100.00
53270;BME280;39159;45.634;9.420;2022-10-16T05:22:05;99423.84;;;14.96;100.00
53270;BME280;39159;45.634;9.420;2022-10-16T05:24:30;99420.00;;;14.97;100.00
53270;BME280;39159;45.634;9.420;2022-10-16T05:26:56;99416.75;;;14.95;100.00
53270;BME280;39159;45.634;9.420;2022-10-16T05:29:21;99416.75;;;14.86;100.00
53270;BME280;39159;45.634;9.420;2022-10-16T05:31:50;99413.53;;;14.84;100.00
53270;BME280;39159;45.634;9.420;2022-10-16T05:34:15;99414.19;;;14.81;100.00
53270;BME280;39159;45.634;9.420;2022-10-16T05:36:41;99422.56;;;14.84;100.00
53270;BME280;39159;45.634;9.420;2022-10-16T05:39:06;99423.53;;;14.80;100.00
53270;BME280;39159;45.634;9.420;2022-10-16T05:41:33;99423.88;;;14.78;100.00
53270;BME280;39159;45.634;9.420;2022-10-16T05:43:58;99422.91;;;14.74;100.00
53270;BME280;39159;45.634;9.420;2022-10-16T05:46:24;99424.34;;;14.71;100.00
53270;BME280;39159;45.634;9.420;2022-10-16T05:48:52;99434.84;;;14.69;100.00
53270;BME280;39159;45.634;9.420;2022-10-16T05:51:18;99431.66;;;14.67;100.00
53270;BME280;39159;45.634;9.420;2022-10-16T05:53:43;99437.16;;;14.67;100.00
53270;BME280;39159;45.634;9.420;2022-10-16T05:56:10;99444.25;;;14.68;100.00
53270;BME280;39159;45.634;9.420;2022-10-16T05:58:36;99448.59;;;14.69;100.00
53270;BME280;39159;45.634;9.420;2022-10-16T06:01:05;99446.69;;;14.70;100.00
53270;BME280;39159;45.634;9.420;2022-10-16T06:03:33;99454.56;;;14.71;100.00
53270;BME280;39159;45.634;9.420;2022-10-16T06:05:59;99452.66;;;14.72;100.00
53270;BME280;39159;45.634;9.420;2022-10-16T06:08:25;99462.19;;;14.75;100.00
53270;BME280;39159;45.634;9.420;2022-10-16T06:11:11;99462.66;;;14.77;100.00
53270;BME280;39159;45.634;9.420;2022-10-16T06:13:37;99465.25;;;14.82;100.00
53270;BME280;39159;45.634;9.420;2022-10-16T06:16:04;99469.94;;;14.90;100.00
53270;BME280;39159;45.634;9.420;2022-10-16T06:18:30;99478.50;;;14.97;100.00
53270;BME280;39159;45.634;9.420;2022-10-16T06:20:56;99485.47;;;15.03;100.00
53270;BME280;39159;45.634;9.420;2022-10-16T06:23:22;99487.06;;;15.04;100.00
53270;BME280;39159;45.634;9.420;2022-10-16T06:25:48;99488.53;;;15.10;100.00
53270;BME280;39159;45.634;9.420;2022-10-16T06:28:14;99491.09;;;15.16;100.00
53270;BME280;39159;45.634;9.420;2022-10-16T06:30:40;99492.25;;;15.15;100.00
53270;BME280;39159;45.634;9.420;2022-10-16T06:33:05;99501.94;;;15.21;100.00
53270;BME280;39159;45.634;9.420;2022-10-16T06:35:31;99505.00;;;15.19;100.00
53270;BME280;39159;45.634;9.420;2022-10-16T06:37:57;99504.22;;;15.19;100.00
53270;BME280;39159;45.634;9.420;2022-10-16T06:40:23;99501.94;;;15.21;100.00
53270;BME280;39159;45.634;9.420;2022-10-16T06:42:48;99503.22;;;15.23;100.00
53270;BME280;39159;45.634;9.420;2022-10-16T06:45:14;99517.13;;;15.27;100.00
53270;BME280;39159;45.634;9.420;2022-10-16T06:47:39;99517.28;;;15.30;100.00
53270;BME280;39159;45.634;9.420;2022-10-16T06:50:05;99520.53;;;15.32;100.00
53270;BME280;39159;45.634;9.420;2022-10-16T06:52:34;99519.38;;;15.33;100.00
53270;BME280;39159;45.634;9.420;2022-10-16T06:54:59;99525.84;;;15.38;100.00
53270;BME280;39159;45.634;9.420;2022-10-16T06:57:25;99529.56;;;15.42;100.00
53270;BME280;39159;45.634;9.420;2022-10-16T06:59:51;99540.88;;;15.49;100.00
53270;BME280;39159;45.634;9.420;2022-10-16T07:02:16;99539.09;;;15.53;100.00
53270;BME280;39159;45.634;9.420;2022-10-16T07:04:42;99540.06;;;15.57;100.00
53270;BME280;39159;45.634;9.420;2022-10-16T07:07:07;99545.84;;;15.64;100.00
53270;BME280;39159;45.634;9.420;2022-10-16T07:09:32;99545.38;;;15.71;100.00
53270;BME280;39159;45.634;9.420;2022-10-16T07:11:58;99551.53;;;15.77;100.00
53270;BME280;39159;45.634;9.420;2022-10-16T07:14:23;99555.56;;;15.79;100.00
53270;BME280;39159;45.634;9.420;2022-10-16T07:16:50;99555.38;;;15.84;100.00
53270;BME280;39159;45.634;9.420;2022-10-16T07:19:15;99557.31;;;15.92;100.00
53270;BME280;39159;45.634;9.420;2022-10-16T07:21:43;99564.72;;;16.01;100.00
53270;BME280;39159;45.634;9.420;2022-10-16T07:24:15;99555.16;;;16.07;100.00
53270;BME280;39159;45.634;9.420;2022-10-16T07:26:42;99571.16;;;16.13;100.00
53270;BME280;39159;45.634;9.420;2022-10-16T07:29:20;99571.13;;;16.22;100.00
53270;BME280;39159;45.634;9.420;2022-10-16T07:31:47;99566.06;;;16.33;100.00
53270;BME280;39159;45.634;9.420;2022-10-16T07:34:14;99572.66;;;16.41;100.00
53270;BME280;39159;45.634;9.420;2022-10-16T07:36:40;99577.59;;;16.56;100.00
53270;BME280;39159;45.634;9.420;2022-10-16T07:39:05;99577.09;;;16.63;100.00
53270;BME280;39159;45.634;9.420;2022-10-16T07:41:31;99571.72;;;16.66;100.00
53270;BME280;39159;45.634;9.420;2022-10-16T07:43:58;99577.63;;;16.86;100.00
53270;BME280;39159;45.634;9.420;2022-10-16T07:46:26;99584.22;;;16.93;100.00
53270;BME280;39159;45.634;9.420;2022-10-16T07:48:52;99584.16;;;17.02;100.00
53270;BME280;39159;45.634;9.420;2022-10-16T07:51:20;99588.13;;;17.13;100.00
53270;BME280;39159;45.634;9.420;2022-10-16T07:53:46;99587.59;;;17.20;100.00
53270;BME280;39159;45.634;9.420;2022-10-16T07:56:13;99590.97;;;17.26;100.00
53270;BME280;39159;45.634;9.420;2022-10-16T07:58:39;99596.50;;;17.26;100.00
53270;BME280;39159;45.634;9.420;2022-10-16T08:01:06;99602.22;;;17.54;100.00
53270;BME280;39159;45.634;9.420;2022-10-16T08:03:32;99600.88;;;17.81;100.00
53270;BME280;39159;45.634;9.420;2022-10-16T08:05:59;99599.88;;;17.98;100.00
53270;BME280;39159;45.634;9.420;2022-10-16T08:08:25;99605.34;;;18.19;99.95
53270;BME280;39159;45.634;9.420;2022-10-16T08:10:51;99603.53;;;18.23;96.37
53270;BME280;39159;45.634;9.420;2022-10-16T08:13:17;99601.31;;;18.16;97.21
53270;BME280;39159;45.634;9.420;2022-10-16T08:15:43;99598.91;;;18.15;97.78
53270;BME280;39159;45.634;9.420;2022-10-16T08:18:09;99603.50;;;18.11;97.65
53270;BME280;39159;45.634;9.420;2022-10-16T08:20:35;99606.03;;;18.16;98.03
53270;BME280;39159;45.634;9.420;2022-10-16T08:23:01;99598.22;;;18.30;98.06
53270;BME280;39159;45.634;9.420;2022-10-16T08:25:27;99612.84;;;18.31;93.92
53270;BME280;39159;45.634;9.420;2022-10-16T08:27:53;99605.81;;;18.33;94.02
53270;BME280;39159;45.634;9.420;2022-10-16T08:30:20;99614.34;;;18.53;91.65
53270;BME280;39159;45.634;9.420;2022-10-16T08:32:45;99617.69;;;18.58;91.08
53270;BME280;39159;45.634;9.420;2022-10-16T08:35:12;99607.09;;;18.60;92.31
53270;BME280;39159;45.634;9.420;2022-10-16T08:37:38;99611.25;;;18.54;92.96
53270;BME280;39159;45.634;9.420;2022-10-16T08:40:06;99609.41;;;18.46;92.86
53270;BME280;39159;45.634;9.420;2022-10-16T08:46:20;99610.19;;;18.47;92.01
53270;BME280;39159;45.634;9.420;2022-10-16T08:51:04;99617.69;;;18.58;93.34
53270;BME280;39159;45.634;9.420;2022-10-16T08:56:13;99622.31;;;18.67;91.60
53270;BME280;39159;45.634;9.420;2022-10-16T08:58:39;99617.47;;;18.63;90.13
53270;BME280;39159;45.634;9.420;2022-10-16T09:01:11;99611.00;;;18.72;90.87
53270;BME280;39159;45.634;9.420;2022-10-16T09:18:12;99629.97;;;19.35;87.84
53270;BME280;39159;45.634;9.420;2022-10-16T09:22:46;99634.78;;;19.78;84.16
53270;BME280;39159;45.634;9.420;2022-10-16T09:25:15;99631.44;;;20.01;82.13
53270;BME280;39159;45.634;9.420;2022-10-16T09:27:43;99635.97;;;20.21;81.09
53270;BME280;39159;45.634;9.420;2022-10-16T09:30:15;99639.38;;;20.31;81.74
53270;BME280;39159;45.634;9.420;2022-10-16T09:32:42;99643.66;;;20.44;78.62
53270;BME280;39159;45.634;9.420;2022-10-16T09:35:15;99649.28;;;20.47;78.86
53270;BME280;39159;45.634;9.420;2022-10-16T09:37:43;99647.59;;;20.43;79.49
53270;BME280;39159;45.634;9.420;2022-10-16T09:40:23;99641.06;;;20.51;79.81
53270;BME280;39159;45.634;9.420;2022-10-16T09:42:50;99643.13;;;20.54;78.59
53270;BME280;39159;45.634;9.420;2022-10-16T09:45:23;99634.66;;;20.63;79.73
53270;BME280;39159;45.634;9.420;2022-10-16T09:47:49;99644.25;;;20.65;78.81
53270;BME280;39159;45.634;9.420;2022-10-16T09:50:26;99639.66;;;20.73;80.34
53270;BME280;39159;45.634;9.420;2022-10-16T09:53:08;99645.75;;;20.79;80.11
53270;BME280;39159;45.634;9.420;2022-10-16T09:55:35;99644.47;;;20.76;79.25
53270;BME280;39159;45.634;9.420;2022-10-16T09:58:01;99641.09;;;20.67;79.78
53270;BME280;39159;45.634;9.420;2022-10-16T10:00:26;99646.03;;;20.58;79.77
53270;BME280;39159;45.634;9.420;2022-10-16T10:05:24;99643.03;;;20.50;78.96
53270;BME280;39159;45.634;9.420;2022-10-16T10:10:31;99644.72;;;21.03;80.28
53270;BME280;39159;45.634;9.420;2022-10-16T10:12:57;99644.34;;;21.04;76.31
53270;BME280;39159;45.634;9.420;2022-10-16T10:15:23;99636.28;;;21.15;77.26
53270;BME280;39159;45.634;9.420;2022-10-16T10:17:51;99641.38;;;21.13;76.60
53270;BME280;39159;45.634;9.420;2022-10-16T10:20:36;99636.06;;;21.24;75.89
53270;BME280;39159;45.634;9.420;2022-10-16T10:23:36;99631.44;;;21.47;75.34
53270;BME280;39159;45.634;9.420;2022-10-16T10:26:16;99636.94;;;21.63;75.48
53270;BME280;39159;45.634;9.420;2022-10-16T10:35:03;99635.47;;;21.50;74.76
53270;BME280;39159;45.634;9.420;2022-10-16T10:46:41;99629.88;;;21.30;75.49
53270;BME280;39159;45.634;9.420;2022-10-16T10:57:33;99625.00;;;21.63;72.69
53270;BME280;39159;45.634;9.420;2022-10-16T11:00:21;99625.09;;;21.66;74.63
53270;BME280;39159;45.634;9.420;2022-10-16T11:02:54;99625.88;;;21.67;73.87
53270;BME280;39159;45.634;9.420;2022-10-16T11:05:41;99626.31;;;21.69;73.51
53270;BME280;39159;45.634;9.420;2022-10-16T11:08:30;99617.63;;;21.70;73.74
53270;BME280;39159;45.634;9.420;2022-10-16T11:11:01;99624.44;;;21.73;74.14
53270;BME280;39159;45.634;9.420;2022-10-16T11:13:35;99620.78;;;21.69;73.19
53270;BME280;39159;45.634;9.420;2022-10-16T11:16:13;99627.13;;;21.69;73.95
53270;BME280;39159;45.634;9.420;2022-10-16T11:18:55;99623.91;;;21.87;73.27
53270;BME280;39159;45.634;9.420;2022-10-16T11:21:24;99621.41;;;22.01;72.42
53270;BME280;39159;45.634;9.420;2022-10-16T11:24:16;99611.91;;;22.25;72.07
53270;BME280;39159;45.634;9.420;2022-10-16T11:26:47;99610.81;;;22.53;74.11
53270;BME280;39159;45.634;9.420;2022-10-16T11:29:35;99604.75;;;22.74;69.76
53270;BME280;39159;45.634;9.420;2022-10-16T11:32:24;99607.50;;;22.70;71.31
53270;BME280;39159;45.634;9.420;2022-10-16T11:34:58;99605.47;;;22.67;71.05
53270;BME280;39159;45.634;9.420;2022-10-16T11:37:38;99609.94;;;22.49;71.24
53270;BME280;39159;45.634;9.420;2022-10-16T11:40:27;99602.16;;;22.85;68.41
53270;BME280;39159;45.634;9.420;2022-10-16T11:43:33;99609.19;;;23.02;68.46
53270;BME280;39159;45.634;9.420;2022-10-16T11:46:08;99608.91;;;23.41;68.16
53270;BME280;39159;45.634;9.420;2022-10-16T11:48:48;99605.63;;;23.31;66.54
53270;BME280;39159;45.634;9.420;2022-10-16T11:51:39;99601.63;;;22.75;68.83
53270;BME280;39159;45.634;9.420;2022-10-16T11:54:32;99604.34;;;22.72;69.60
53270;BME280;39159;45.634;9.420;2022-10-16T11:57:02;99598.41;;;22.73;70.01
53270;BME280;39159;45.634;9.420;2022-10-16T11:59:51;99592.03;;;22.73;69.82
53270;BME280;39159;45.634;9.420;2022-10-16T12:07:55;99591.19;;;23.22;66.45
53270;BME280;39159;45.634;9.420;2022-10-16T12:10:27;99604.53;;;23.40;67.71
53270;BME280;39159;45.634;9.420;2022-10-16T12:12:54;99600.78;;;23.58;65.99
53270;BME280;39159;45.634;9.420;2022-10-16T12:15:29;99590.53;;;23.70;63.72
53270;BME280;39159;45.634;9.420;2022-10-16T12:17:55;99595.06;;;23.78;63.79
53270;BME280;39159;45.634;9.420;2022-10-16T12:20:26;99595.06;;;23.78;64.88
53270;BME280;39159;45.634;9.420;2022-10-16T12:23:04;99591.91;;;23.83;64.22
53270;BME280;39159;45.634;9.420;2022-10-16T12:25:34;99596.97;;;23.74;64.50
53270;BME280;39159;45.634;9.420;2022-10-16T12:28:06;99588.91;;;23.65;63.60
53270;BME280;39159;45.634;9.420;2022-10-16T12:30:35;99584.81;;;23.89;64.10
53270;BME280;39159;45.634;9.420;2022-10-16T12:33:25;99584.69;;;23.78;62.95
53270;BME280;39159;45.634;9.420;2022-10-16T12:35:52;99580.94;;;23.97;62.59
53270;BME280;39159;45.634;9.420;2022-10-16T12:38:45;99584.31;;;24.17;61.89
53270;BME280;39159;45.634;9.420;2022-10-16T12:41:11;99584.25;;;24.14;61.77
53270;BME280;39159;45.634;9.420;2022-10-16T12:43:40;99592.22;;;24.12;62.29
53270;BME280;39159;45.634;9.420;2022-10-16T12:48:37;99597.13;;;24.26;62.33
53270;BME280;39159;45.634;9.420;2022-10-16T12:54:02;99591.03;;;24.13;62.83
53270;BME280;39159;45.634;9.420;2022-10-16T12:56:43;99588.19;;;24.06;62.29
53270;BME280;39159;45.634;9.420;2022-10-16T12:59:22;99584.31;;;24.17;63.05
53270;BME280;39159;45.634;9.420;2022-10-16T13:07:48;99585.09;;;24.18;59.63
53270;BME280;39159;45.634;9.420;2022-10-16T13:13:04;99595.44;;;23.76;62.47
53270;BME280;39159;45.634;9.420;2022-10-16T13:18:39;99597.16;;;23.54;59.82
53270;BME280;39159;45.634;9.420;2022-10-16T13:21:33;99595.75;;;23.37;61.31
53270;BME280;39159;45.634;9.420;2022-10-16T13:24:39;99594.56;;;23.38;60.99
53270;BME280;39159;45.634;9.420;2022-10-16T13:29:54;99598.75;;;23.55;61.92
53270;BME280;39159;45.634;9.420;2022-10-16T13:32:26;99592.53;;;23.69;62.04
53270;BME280;39159;45.634;9.420;2022-10-16T13:34:52;99590.28;;;23.78;62.50
53270;BME280;39159;45.634;9.420;2022-10-16T13:37:21;99594.25;;;23.77;60.87
53270;BME280;39159;45.634;9.420;2022-10-16T13:39:46;99589.91;;;23.80;61.67
53270;BME280;39159;45.634;9.420;2022-10-16T13:42:24;99594.44;;;23.95;60.37
53270;BME280;39159;45.634;9.420;2022-10-16T13:44:53;99598.00;;;23.92;61.58
53270;BME280;39159;45.634;9.420;2022-10-16T13:47:22;99590.69;;;23.77;60.70
53270;BME280;39159;45.634;9.420;2022-10-16T13:49:59;99601.31;;;23.71;61.59
53270;BME280;39159;45.634;9.420;2022-10-16T13:52:26;99604.28;;;23.52;62.73
53270;BME280;39159;45.634;9.420;2022-10-16T13:54:53;99599.38;;;23.42;61.18
53270;BME280;39159;45.634;9.420;2022-10-16T13:57:22;99601.06;;;23.50;61.70
53270;BME280;39159;45.634;9.420;2022-10-16T13:59:49;99609.81;;;23.48;59.51
53270;BME280;39159;45.634;9.420;2022-10-16T14:04:46;99602.16;;;23.11;61.58
53270;BME280;39159;45.634;9.420;2022-10-16T14:07:21;99596.56;;;23.08;60.35
53270;BME280;39159;45.634;9.420;2022-10-16T14:09:49;99601.88;;;23.20;59.67
53270;BME280;39159;45.634;9.420;2022-10-16T14:12:16;99605.94;;;23.26;60.19
53270;BME280;39159;45.634;9.420;2022-10-16T14:14:44;99605.59;;;23.28;60.25
53270;BME280;39159;45.634;9.420;2022-10-16T14:17:18;99603.50;;;22.94;60.54
53270;BME280;39159;45.634;9.420;2022-10-16T14:19:50;99613.09;;;22.74;61.82
53270;BME280;39159;45.634;9.420;2022-10-16T14:22:36;99611.84;;;22.68;61.84
53270;BME280;39159;45.634;9.420;2022-10-16T14:27:56;99607.94;;;22.72;61.25
53270;BME280;39159;45.634;9.420;2022-10-16T14:30:22;99618.47;;;22.60;62.32
53270;BME280;39159;45.634;9.420;2022-10-16T14:35:45;99616.00;;;22.54;63.85
53270;BME280;39159;45.634;9.420;2022-10-16T14:38:19;99608.06;;;22.56;63.92
53270;BME280;39159;45.634;9.420;2022-10-16T14:40:49;99617.16;;;22.53;62.73
53270;BME280;39159;45.634;9.420;2022-10-16T14:43:52;99613.47;;;22.46;63.71
53270;BME280;39159;45.634;9.420;2022-10-16T14:46:18;99624.09;;;22.40;63.39
53270;BME280;39159;45.634;9.420;2022-10-16T14:48:46;99618.78;;;22.31;63.66
53270;BME280;39159;45.634;9.420;2022-10-16T14:51:15;99616.53;;;22.18;63.61